sensor_id;sensor_type;location;lat;lon;timestamp;P1;durP1;ratioP1;P2;durP2;ratioP2
40244;SDS011;25963;42.694;23.600;2022-09-19T00:01:23;3.97;;;1.92;;
40244;SDS011;25963;42.694;23.600;2022-09-19T00:03:52;2.22;;;1.98;;
40244;SDS011;25963;42.694;23.600;2022-09-19T00:06:26;2.72;;;2.05;;
40244;SDS011;25963;42.694;23.600;2022-09-19T00:08:53;2.13;;;1.92;;
40244;SDS011;25963;42.694;23.600;2022-09-19T00:11:20;1.90;;;1.70;;
40244;SDS011;25963;42.694;23.600;2022-09-19T00:13:47;1.90;;;1.80;;
40244;SDS011;25963;42.694;23.600;2022-09-19T00:16:33;2.63;;;1.83;;
40244;SDS011;25963;42.694;23.600;2022-09-19T00:19:02;2.72;;;2.20;;
40244;SDS011;25963;42.694;23.600;2022-09-19T00:21:34;3.00;;;1.92;;
40244;SDS011;25963;42.694;23.600;2022-09-19T00:24:01;2.30;;;2.10;;
40244;SDS011;25963;42.694;23.600;2022-09-19T00:26:46;3.53;;;2.10;;
40244;SDS011;25963;42.694;23.600;2022-09-19T00:29:12;3.92;;;2.25;;
40244;SDS011;25963;42.694;23.600;2022-09-19T00:31:40;3.05;;;2.60;;
40244;SDS011;25963;42.694;23.600;2022-09-19T00:34:08;3.67;;;2.50;;
40244;SDS011;25963;42.694;23.600;2022-09-19T00:36:35;4.50;;;2.65;;
40244;SDS011;25963;42.694;23.600;2022-09-19T00:39:02;2.90;;;2.33;;
40244;SDS011;25963;42.694;23.600;2022-09-19T00:41:29;2.78;;;2.28;;
40244;SDS011;25963;42.694;23.600;2022-09-19T00:43:56;3.35;;;2.50;;
40244;SDS011;25963;42.694;23.600;2022-09-19T00:46:25;4.45;;;3.08;;
40244;SDS011;25963;42.694;23.600;2022-09-19T00:48:55;10.77;;;6.22;;
40244;SDS011;25963;42.694;23.600;2022-09-19T00:51:32;7.90;;;4.90;;
40244;SDS011;25963;42.694;23.600;2022-09-19T00:54:05;4.55;;;2.97;;
40244;SDS011;25963;42.694;23.600;2022-09-19T00:56:39;2.78;;;2.30;;
40244;SDS011;25963;42.694;23.600;2022-09-19T00:59:07;3.85;;;2.40;;
40244;SDS011;25963;42.694;23.600;2022-09-19T01:01:35;4.72;;;2.25;;
40244;SDS011;25963;42.694;23.600;2022-09-19T01:04:01;2.13;;;2.03;;
40244;SDS011;25963;42.694;23.600;2022-09-19T01:17:13;3.28;;;2.97;;
40244;SDS011;25963;42.694;23.600;2022-09-19T01:25:03;4.15;;;3.15;;
40244;SDS011;25963;42.694;23.600;2022-09-19T01:30:37;2.35;;;1.92;;
40244;SDS011;25963;42.694;23.600;2022-09-19T01:33:10;2.25;;;2.05;;
40244;SDS011;25963;42.694;23.600;2022-09-19T01:35:43;2.67;;;2.00;;
40244;SDS011;25963;42.694;23.600;2022-09-19T01:38:17;3.70;;;2.50;;
40244;SDS011;25963;42.694;23.600;2022-09-19T01:40:47;3.65;;;2.63;;
40244;SDS011;25963;42.694;23.600;2022-09-19T01:43:15;4.03;;;2.92;;
40244;SDS011;25963;42.694;23.600;2022-09-19T01:45:42;3.65;;;2.40;;
40244;SDS011;25963;42.694;23.600;2022-09-19T01:51:14;4.13;;;2.78;;
40244;SDS011;25963;42.694;23.600;2022-09-19T02:01:41;2.25;;;2.03;;
40244;SDS011;25963;42.694;23.600;2022-09-19T02:04:27;2.53;;;2.25;;
40244;SDS011;25963;42.694;23.600;2022-09-19T02:07:04;2.40;;;2.20;;
40244;SDS011;25963;42.694;23.600;2022-09-19T02:12:30;2.80;;;2.45;;
40244;SDS011;25963;42.694;23.600;2022-09-19T02:15:01;2.70;;;2.30;;
40244;SDS011;25963;42.694;23.600;2022-09-19T02:17:32;3.37;;;3.07;;
40244;SDS011;25963;42.694;23.600;2022-09-19T02:20:13;2.90;;;2.40;;
40244;SDS011;25963;42.694;23.600;2022-09-19T02:22:50;2.67;;;2.47;;
40244;SDS011;25963;42.694;23.600;2022-09-19T02:25:21;2.88;;;2.17;;
40244;SDS011;25963;42.694;23.600;2022-09-19T02:27:50;2.47;;;2.28;;
40244;SDS011;25963;42.694;23.600;2022-09-19T02:30:19;2.53;;;2.33;;
40244;SDS011;25963;42.694;23.600;2022-09-19T02:32:45;3.35;;;2.65;;
40244;SDS011;25963;42.694;23.600;2022-09-19T02:35:20;2.60;;;2.00;;
40244;SDS011;25963;42.694;23.600;2022-09-19T02:38:05;4.97;;;1.85;;
40244;SDS011;25963;42.694;23.600;2022-09-19T02:45:55;4.32;;;2.28;;
40244;SDS011;25963;42.694;23.600;2022-09-19T02:48:43;9.15;;;2.92;;
40244;SDS011;25963;42.694;23.600;2022-09-19T02:51:24;5.40;;;2.75;;
40244;SDS011;25963;42.694;23.600;2022-09-19T02:53:58;2.22;;;2.00;;
40244;SDS011;25963;42.694;23.600;2022-09-19T02:59:01;3.60;;;3.30;;
40244;SDS011;25963;42.694;23.600;2022-09-19T03:01:31;3.35;;;3.05;;
40244;SDS011;25963;42.694;23.600;2022-09-19T03:04:07;3.83;;;2.78;;
40244;SDS011;25963;42.694;23.600;2022-09-19T03:09:31;2.80;;;2.60;;
40244;SDS011;25963;42.694;23.600;2022-09-19T03:12:11;3.97;;;2.70;;
40244;SDS011;25963;42.694;23.600;2022-09-19T03:14:46;2.95;;;2.60;;
40244;SDS011;25963;42.694;23.600;2022-09-19T03:17:14;3.00;;;2.65;;
40244;SDS011;25963;42.694;23.600;2022-09-19T03:19:48;3.97;;;2.90;;
40244;SDS011;25963;42.694;23.600;2022-09-19T03:22:14;2.60;;;2.40;;
40244;SDS011;25963;42.694;23.600;2022-09-19T03:24:40;3.55;;;2.67;;
40244;SDS011;25963;42.694;23.600;2022-09-19T03:27:07;2.90;;;2.70;;
40244;SDS011;25963;42.694;23.600;2022-09-19T03:29:34;2.75;;;2.45;;
40244;SDS011;25963;42.694;23.600;2022-09-19T03:32:00;2.90;;;2.63;;
40244;SDS011;25963;42.694;23.600;2022-09-19T03:34:25;4.20;;;2.85;;
40244;SDS011;25963;42.694;23.600;2022-09-19T03:36:51;4.55;;;2.97;;
40244;SDS011;25963;42.694;23.600;2022-09-19T03:39:16;4.30;;;3.20;;
40244;SDS011;25963;42.694;23.600;2022-09-19T03:41:42;5.38;;;2.60;;
40244;SDS011;25963;42.694;23.600;2022-09-19T03:44:08;3.05;;;2.58;;
40244;SDS011;25963;42.694;23.600;2022-09-19T03:46:34;3.80;;;2.97;;
40244;SDS011;25963;42.694;23.600;2022-09-19T03:49:00;4.15;;;3.25;;
40244;SDS011;25963;42.694;23.600;2022-09-19T03:51:27;4.40;;;2.60;;
40244;SDS011;25963;42.694;23.600;2022-09-19T03:53:59;5.68;;;3.00;;
40244;SDS011;25963;42.694;23.600;2022-09-19T03:56:24;4.68;;;2.45;;
40244;SDS011;25963;42.694;23.600;2022-09-19T03:58:50;3.65;;;3.25;;
40244;SDS011;25963;42.694;23.600;2022-09-19T04:01:15;4.53;;;2.92;;
40244;SDS011;25963;42.694;23.600;2022-09-19T04:03:41;3.95;;;3.55;;
40244;SDS011;25963;42.694;23.600;2022-09-19T04:06:07;3.28;;;2.92;;
40244;SDS011;25963;42.694;23.600;2022-09-19T04:08:33;4.65;;;3.15;;
40244;SDS011;25963;42.694;23.600;2022-09-19T04:10:59;3.55;;;3.13;;
40244;SDS011;25963;42.694;23.600;2022-09-19T04:13:25;3.42;;;3.13;;
40244;SDS011;25963;42.694;23.600;2022-09-19T04:15:52;3.70;;;3.40;;
40244;SDS011;25963;42.694;23.600;2022-09-19T04:18:18;3.63;;;2.60;;
40244;SDS011;25963;42.694;23.600;2022-09-19T04:20:45;5.53;;;3.00;;
40244;SDS011;25963;42.694;23.600;2022-09-19T04:23:11;3.30;;;2.75;;
40244;SDS011;25963;42.694;23.600;2022-09-19T04:25:41;4.50;;;3.45;;
40244;SDS011;25963;42.694;23.600;2022-09-19T04:28:08;5.07;;;3.15;;
40244;SDS011;25963;42.694;23.600;2022-09-19T04:30:37;3.75;;;3.10;;
40244;SDS011;25963;42.694;23.600;2022-09-19T04:33:04;4.70;;;3.60;;
40244;SDS011;25963;42.694;23.600;2022-09-19T04:35:33;4.18;;;3.78;;
40244;SDS011;25963;42.694;23.600;2022-09-19T04:38:03;5.88;;;4.03;;
40244;SDS011;25963;42.694;23.600;2022-09-19T04:43:10;11.13;;;6.72;;
40244;SDS011;25963;42.694;23.600;2022-09-19T04:45:38;4.13;;;3.20;;
40244;SDS011;25963;42.694;23.600;2022-09-19T04:48:08;4.68;;;2.50;;
40244;SDS011;25963;42.694;23.600;2022-09-19T04:50:35;7.60;;;3.97;;
40244;SDS011;25963;42.694;23.600;2022-09-19T04:53:01;3.13;;;2.00;;
40244;SDS011;25963;42.694;23.600;2022-09-19T04:55:28;3.15;;;1.90;;
40244;SDS011;25963;42.694;23.600;2022-09-19T04:57:54;3.80;;;1.50;;
40244;SDS011;25963;42.694;23.600;2022-09-19T05:00:20;6.63;;;4.20;;
40244;SDS011;25963;42.694;23.600;2022-09-19T05:03:06;9.48;;;4.10;;
40244;SDS011;25963;42.694;23.600;2022-09-19T05:05:34;1.52;;;1.30;;
40244;SDS011;25963;42.694;23.600;2022-09-19T05:08:03;1.70;;;1.30;;
40244;SDS011;25963;42.694;23.600;2022-09-19T05:10:31;2.85;;;1.30;;
40244;SDS011;25963;42.694;23.600;2022-09-19T05:12:57;2.55;;;1.20;;
40244;SDS011;25963;42.694;23.600;2022-09-19T05:15:23;2.85;;;1.30;;
40244;SDS011;25963;42.694;23.600;2022-09-19T05:17:50;2.15;;;1.40;;
40244;SDS011;25963;42.694;23.600;2022-09-19T05:20:19;3.40;;;1.42;;
40244;SDS011;25963;42.694;23.600;2022-09-19T05:22:45;2.22;;;1.25;;
40244;SDS011;25963;42.694;23.600;2022-09-19T05:25:10;5.03;;;1.30;;
40244;SDS011;25963;42.694;23.600;2022-09-19T05:27:36;2.83;;;1.20;;
40244;SDS011;25963;42.694;23.600;2022-09-19T05:30:03;2.58;;;1.10;;
40244;SDS011;25963;42.694;23.600;2022-09-19T05:32:29;3.35;;;1.13;;
40244;SDS011;25963;42.694;23.600;2022-09-19T05:34:54;1.67;;;1.02;;
40244;SDS011;25963;42.694;23.600;2022-09-19T05:37:22;2.63;;;1.20;;
40244;SDS011;25963;42.694;23.600;2022-09-19T05:39:47;3.65;;;1.10;;
40244;SDS011;25963;42.694;23.600;2022-09-19T05:42:15;2.45;;;1.05;;
40244;SDS011;25963;42.694;23.600;2022-09-19T05:44:40;1.67;;;0.75;;
40244;SDS011;25963;42.694;23.600;2022-09-19T05:47:05;1.38;;;1.23;;
40244;SDS011;25963;42.694;23.600;2022-09-19T05:49:31;3.40;;;1.30;;
40244;SDS011;25963;42.694;23.600;2022-09-19T05:51:59;1.77;;;1.00;;
40244;SDS011;25963;42.694;23.600;2022-09-19T05:54:44;2.80;;;1.33;;
40244;SDS011;25963;42.694;23.600;2022-09-19T05:57:09;1.85;;;1.02;;
40244;SDS011;25963;42.694;23.600;2022-09-19T05:59:35;3.03;;;1.02;;
40244;SDS011;25963;42.694;23.600;2022-09-19T06:02:00;4.45;;;1.30;;
40244;SDS011;25963;42.694;23.600;2022-09-19T06:04:26;1.70;;;1.40;;
40244;SDS011;25963;42.694;23.600;2022-09-19T06:06:51;2.10;;;1.38;;
40244;SDS011;25963;42.694;23.600;2022-09-19T06:09:17;3.80;;;1.80;;
40244;SDS011;25963;42.694;23.600;2022-09-19T06:11:43;3.05;;;1.58;;
40244;SDS011;25963;42.694;23.600;2022-09-19T06:14:08;2.67;;;1.10;;
40244;SDS011;25963;42.694;23.600;2022-09-19T06:16:40;1.50;;;1.00;;
40244;SDS011;25963;42.694;23.600;2022-09-19T06:19:06;5.70;;;1.52;;
40244;SDS011;25963;42.694;23.600;2022-09-19T06:21:32;2.47;;;1.30;;
40244;SDS011;25963;42.694;23.600;2022-09-19T06:23:58;6.05;;;1.67;;
40244;SDS011;25963;42.694;23.600;2022-09-19T06:26:26;1.20;;;1.10;;
40244;SDS011;25963;42.694;23.600;2022-09-19T06:28:52;3.72;;;1.33;;
40244;SDS011;25963;42.694;23.600;2022-09-19T06:31:18;4.00;;;1.40;;
40244;SDS011;25963;42.694;23.600;2022-09-19T06:33:44;2.72;;;1.48;;
40244;SDS011;25963;42.694;23.600;2022-09-19T06:36:10;2.15;;;1.42;;
40244;SDS011;25963;42.694;23.600;2022-09-19T06:38:36;1.48;;;1.25;;
40244;SDS011;25963;42.694;23.600;2022-09-19T06:41:08;2.40;;;1.20;;
40244;SDS011;25963;42.694;23.600;2022-09-19T06:43:35;2.85;;;1.30;;
40244;SDS011;25963;42.694;23.600;2022-09-19T06:46:01;1.88;;;1.73;;
40244;SDS011;25963;42.694;23.600;2022-09-19T06:48:27;3.50;;;1.50;;
40244;SDS011;25963;42.694;23.600;2022-09-19T06:50:53;5.03;;;1.75;;
40244;SDS011;25963;42.694;23.600;2022-09-19T06:53:19;4.50;;;1.85;;
40244;SDS011;25963;42.694;23.600;2022-09-19T06:55:44;2.08;;;1.75;;
40244;SDS011;25963;42.694;23.600;2022-09-19T06:58:11;4.60;;;1.92;;
40244;SDS011;25963;42.694;23.600;2022-09-19T07:00:37;2.83;;;2.00;;
40244;SDS011;25963;42.694;23.600;2022-09-19T07:03:08;2.67;;;2.05;;
40244;SDS011;25963;42.694;23.600;2022-09-19T07:05:36;4.45;;;1.95;;
40244;SDS011;25963;42.694;23.600;2022-09-19T07:08:03;3.65;;;2.00;;
40244;SDS011;25963;42.694;23.600;2022-09-19T07:10:29;2.33;;;2.00;;
40244;SDS011;25963;42.694;23.600;2022-09-19T07:12:58;1.63;;;1.52;;
40244;SDS011;25963;42.694;23.600;2022-09-19T07:15:26;4.72;;;2.30;;
40244;SDS011;25963;42.694;23.600;2022-09-19T07:17:53;3.47;;;2.10;;
40244;SDS011;25963;42.694;23.600;2022-09-19T07:20:20;3.30;;;2.17;;
40244;SDS011;25963;42.694;23.600;2022-09-19T07:22:46;6.30;;;2.10;;
40244;SDS011;25963;42.694;23.600;2022-09-19T07:25:12;2.75;;;2.30;;
40244;SDS011;25963;42.694;23.600;2022-09-19T07:27:38;2.63;;;1.90;;
40244;SDS011;25963;42.694;23.600;2022-09-19T07:30:07;2.67;;;2.10;;
40244;SDS011;25963;42.694;23.600;2022-09-19T07:32:33;2.92;;;2.30;;
40244;SDS011;25963;42.694;23.600;2022-09-19T07:34:59;3.78;;;2.88;;
40244;SDS011;25963;42.694;23.600;2022-09-19T07:37:25;2.47;;;1.90;;
40244;SDS011;25963;42.694;23.600;2022-09-19T07:39:51;2.72;;;1.85;;
40244;SDS011;25963;42.694;23.600;2022-09-19T07:42:17;2.33;;;1.50;;
40244;SDS011;25963;42.694;23.600;2022-09-19T07:44:45;4.50;;;1.92;;
40244;SDS011;25963;42.694;23.600;2022-09-19T07:47:10;3.22;;;2.22;;
40244;SDS011;25963;42.694;23.600;2022-09-19T07:49:54;2.72;;;2.00;;
40244;SDS011;25963;42.694;23.600;2022-09-19T07:52:20;3.20;;;1.73;;
40244;SDS011;25963;42.694;23.600;2022-09-19T07:54:47;2.60;;;1.38;;
40244;SDS011;25963;42.694;23.600;2022-09-19T07:57:15;3.08;;;1.70;;
40244;SDS011;25963;42.694;23.600;2022-09-19T07:59:41;2.97;;;1.90;;
40244;SDS011;25963;42.694;23.600;2022-09-19T08:02:08;2.75;;;1.80;;
40244;SDS011;25963;42.694;23.600;2022-09-19T08:04:34;3.60;;;1.55;;
40244;SDS011;25963;42.694;23.600;2022-09-19T08:07:01;2.92;;;1.60;;
40244;SDS011;25963;42.694;23.600;2022-09-19T08:09:28;4.07;;;1.50;;
40244;SDS011;25963;42.694;23.600;2022-09-19T08:11:54;1.65;;;1.40;;
40244;SDS011;25963;42.694;23.600;2022-09-19T08:14:19;2.90;;;1.73;;
40244;SDS011;25963;42.694;23.600;2022-09-19T08:16:44;4.90;;;1.63;;
40244;SDS011;25963;42.694;23.600;2022-09-19T08:19:11;4.40;;;1.75;;
40244;SDS011;25963;42.694;23.600;2022-09-19T08:21:36;3.10;;;1.35;;
40244;SDS011;25963;42.694;23.600;2022-09-19T08:24:02;1.58;;;0.95;;
40244;SDS011;25963;42.694;23.600;2022-09-19T08:26:27;0.95;;;0.68;;
40244;SDS011;25963;42.694;23.600;2022-09-19T08:28:53;1.95;;;0.88;;
40244;SDS011;25963;42.694;23.600;2022-09-19T08:31:18;1.00;;;0.75;;
40244;SDS011;25963;42.694;23.600;2022-09-19T08:33:47;1.77;;;1.00;;
40244;SDS011;25963;42.694;23.600;2022-09-19T08:36:13;2.40;;;0.93;;
40244;SDS011;25963;42.694;23.600;2022-09-19T08:38:39;2.58;;;0.65;;
40244;SDS011;25963;42.694;23.600;2022-09-19T08:49:03;3.33;;;0.70;;
40244;SDS011;25963;42.694;23.600;2022-09-19T08:51:50;2.35;;;0.70;;
40244;SDS011;25963;42.694;23.600;2022-09-19T08:54:34;1.45;;;0.60;;
40244;SDS011;25963;42.694;23.600;2022-09-19T08:57:03;1.38;;;0.70;;
40244;SDS011;25963;42.694;23.600;2022-09-19T08:59:37;1.45;;;0.55;;
40244;SDS011;25963;42.694;23.600;2022-09-19T09:02:14;2.28;;;0.80;;
40244;SDS011;25963;42.694;23.600;2022-09-19T09:04:42;1.05;;;0.70;;
40244;SDS011;25963;42.694;23.600;2022-09-19T09:20:22;0.50;;;0.30;;
40244;SDS011;25963;42.694;23.600;2022-09-19T09:23:00;3.78;;;0.50;;
40244;SDS011;25963;42.694;23.600;2022-09-19T09:25:42;0.77;;;0.50;;
40244;SDS011;25963;42.694;23.600;2022-09-19T09:28:13;0.13;;;0.13;;
40244;SDS011;25963;42.694;23.600;2022-09-19T09:30:47;1.58;;;0.32;;
40244;SDS011;25963;42.694;23.600;2022-09-19T09:33:28;2.67;;;0.77;;
40244;SDS011;25963;42.694;23.600;2022-09-19T09:36:05;2.30;;;0.50;;
40244;SDS011;25963;42.694;23.600;2022-09-19T09:38:42;1.33;;;0.60;;
40244;SDS011;25963;42.694;23.600;2022-09-19T09:41:21;0.68;;;0.40;;
40244;SDS011;25963;42.694;23.600;2022-09-19T09:49:41;5.50;;;0.60;;
40244;SDS011;25963;42.694;23.600;2022-09-19T09:52:22;2.35;;;1.13;;
40244;SDS011;25963;42.694;23.600;2022-09-19T10:00:25;4.80;;;0.55;;
40244;SDS011;25963;42.694;23.600;2022-09-19T10:03:19;2.63;;;0.60;;
40244;SDS011;25963;42.694;23.600;2022-09-19T10:06:30;2.28;;;0.80;;
40244;SDS011;25963;42.694;23.600;2022-09-19T10:11:38;3.05;;;0.43;;
40244;SDS011;25963;42.694;23.600;2022-09-19T10:14:11;1.55;;;0.50;;
40244;SDS011;25963;42.694;23.600;2022-09-19T10:16:43;1.27;;;0.55;;
40244;SDS011;25963;42.694;23.600;2022-09-19T10:22:16;1.42;;;0.70;;
40244;SDS011;25963;42.694;23.600;2022-09-19T10:27:27;2.88;;;0.73;;
40244;SDS011;25963;42.694;23.600;2022-09-19T10:29:59;2.75;;;0.60;;
40244;SDS011;25963;42.694;23.600;2022-09-19T10:32:28;2.47;;;0.85;;
40244;SDS011;25963;42.694;23.600;2022-09-19T10:38:09;3.17;;;0.80;;
40244;SDS011;25963;42.694;23.600;2022-09-19T10:43:22;3.15;;;0.70;;
40244;SDS011;25963;42.694;23.600;2022-09-19T10:45:52;1.08;;;0.60;;
40244;SDS011;25963;42.694;23.600;2022-09-19T10:50:55;0.82;;;0.50;;
40244;SDS011;25963;42.694;23.600;2022-09-19T10:53:27;1.73;;;0.80;;
40244;SDS011;25963;42.694;23.600;2022-09-19T10:55:57;1.38;;;0.68;;
40244;SDS011;25963;42.694;23.600;2022-09-19T10:58:28;2.70;;;0.93;;
40244;SDS011;25963;42.694;23.600;2022-09-19T11:00:58;1.80;;;0.77;;
40244;SDS011;25963;42.694;23.600;2022-09-19T11:06:04;2.20;;;0.45;;
40244;SDS011;25963;42.694;23.600;2022-09-19T11:08:48;1.65;;;0.40;;
40244;SDS011;25963;42.694;23.600;2022-09-19T11:22:58;2.67;;;1.23;;
40244;SDS011;25963;42.694;23.600;2022-09-19T11:31:10;1.30;;;0.63;;
40244;SDS011;25963;42.694;23.600;2022-09-19T11:34:01;3.70;;;1.38;;
40244;SDS011;25963;42.694;23.600;2022-09-19T11:39:48;0.98;;;0.43;;
40244;SDS011;25963;42.694;23.600;2022-09-19T11:45:25;4.35;;;2.20;;
40244;SDS011;25963;42.694;23.600;2022-09-19T11:50:46;1.75;;;0.57;;
40244;SDS011;25963;42.694;23.600;2022-09-19T11:58:51;6.93;;;2.63;;
40244;SDS011;25963;42.694;23.600;2022-09-19T12:09:28;3.08;;;0.40;;
40244;SDS011;25963;42.694;23.600;2022-09-19T12:14:40;2.97;;;1.00;;
40244;SDS011;25963;42.694;23.600;2022-09-19T12:23:12;1.70;;;1.02;;
40244;SDS011;25963;42.694;23.600;2022-09-19T12:25:56;3.13;;;1.05;;
40244;SDS011;25963;42.694;23.600;2022-09-19T12:28:26;19.80;;;9.25;;
40244;SDS011;25963;42.694;23.600;2022-09-19T12:30:57;9.20;;;4.95;;
40244;SDS011;25963;42.694;23.600;2022-09-19T12:33:31;1.35;;;0.85;;
40244;SDS011;25963;42.694;23.600;2022-09-19T12:36:16;2.55;;;1.23;;
40244;SDS011;25963;42.694;23.600;2022-09-19T12:39:11;2.78;;;1.10;;
40244;SDS011;25963;42.694;23.600;2022-09-19T12:41:58;2.78;;;1.00;;
40244;SDS011;25963;42.694;23.600;2022-09-19T12:44:52;2.28;;;0.95;;
40244;SDS011;25963;42.694;23.600;2022-09-19T12:47:34;2.17;;;1.10;;
40244;SDS011;25963;42.694;23.600;2022-09-19T12:56:17;4.55;;;1.30;;
40244;SDS011;25963;42.694;23.600;2022-09-19T13:06:57;5.88;;;0.90;;
40244;SDS011;25963;42.694;23.600;2022-09-19T13:09:33;2.17;;;1.05;;
40244;SDS011;25963;42.694;23.600;2022-09-19T13:12:15;2.72;;;1.20;;
40244;SDS011;25963;42.694;23.600;2022-09-19T13:14:54;1.67;;;0.90;;
40244;SDS011;25963;42.694;23.600;2022-09-19T13:17:27;4.47;;;1.00;;
40244;SDS011;25963;42.694;23.600;2022-09-19T13:20:16;1.30;;;0.90;;
40244;SDS011;25963;42.694;23.600;2022-09-19T13:23:02;2.58;;;0.93;;
40244;SDS011;25963;42.694;23.600;2022-09-19T13:25:47;3.42;;;1.10;;
40244;SDS011;25963;42.694;23.600;2022-09-19T13:30:51;2.03;;;1.05;;
40244;SDS011;25963;42.694;23.600;2022-09-19T13:33:26;4.30;;;1.00;;
40244;SDS011;25963;42.694;23.600;2022-09-19T13:36:09;4.85;;;1.63;;
40244;SDS011;25963;42.694;23.600;2022-09-19T13:38:37;4.47;;;2.13;;
40244;SDS011;25963;42.694;23.600;2022-09-19T13:41:18;5.85;;;2.63;;
40244;SDS011;25963;42.694;23.600;2022-09-19T13:44:24;4.90;;;2.13;;
40244;SDS011;25963;42.694;23.600;2022-09-19T13:49:38;2.25;;;0.80;;
40244;SDS011;25963;42.694;23.600;2022-09-19T13:52:25;2.05;;;1.00;;
40244;SDS011;25963;42.694;23.600;2022-09-19T13:59:57;3.05;;;0.98;;
40244;SDS011;25963;42.694;23.600;2022-09-19T14:02:26;3.60;;;0.90;;
40244;SDS011;25963;42.694;23.600;2022-09-19T14:05:03;1.60;;;1.08;;
40244;SDS011;25963;42.694;23.600;2022-09-19T14:07:47;2.15;;;1.05;;
40244;SDS011;25963;42.694;23.600;2022-09-19T14:10:20;4.95;;;1.05;;
40244;SDS011;25963;42.694;23.600;2022-09-19T14:12:48;11.13;;;1.30;;
40244;SDS011;25963;42.694;23.600;2022-09-19T14:23:43;4.35;;;1.60;;
40244;SDS011;25963;42.694;23.600;2022-09-19T14:37:30;3.95;;;1.42;;
40244;SDS011;25963;42.694;23.600;2022-09-19T14:45:40;3.38;;;1.40;;
40244;SDS011;25963;42.694;23.600;2022-09-19T14:51:16;1.50;;;0.70;;
40244;SDS011;25963;42.694;23.600;2022-09-19T14:54:09;5.85;;;0.75;;
40244;SDS011;25963;42.694;23.600;2022-09-19T14:56:50;4.07;;;1.00;;
40244;SDS011;25963;42.694;23.600;2022-09-19T14:59:25;1.83;;;0.60;;
40244;SDS011;25963;42.694;23.600;2022-09-19T15:01:52;5.20;;;0.80;;
40244;SDS011;25963;42.694;23.600;2022-09-19T15:04:20;1.88;;;1.08;;
40244;SDS011;25963;42.694;23.600;2022-09-19T15:06:52;2.13;;;0.60;;
40244;SDS011;25963;42.694;23.600;2022-09-19T15:11:58;2.58;;;0.65;;
40244;SDS011;25963;42.694;23.600;2022-09-19T15:14:26;3.70;;;1.10;;
40244;SDS011;25963;42.694;23.600;2022-09-19T15:19:41;3.28;;;0.80;;
40244;SDS011;25963;42.694;23.600;2022-09-19T15:22:21;2.33;;;1.23;;
40244;SDS011;25963;42.694;23.600;2022-09-19T15:24:52;2.65;;;1.10;;
40244;SDS011;25963;42.694;23.600;2022-09-19T15:27:24;1.30;;;0.80;;
40244;SDS011;25963;42.694;23.600;2022-09-19T15:29:53;1.65;;;0.90;;
40244;SDS011;25963;42.694;23.600;2022-09-19T15:32:26;4.43;;;0.93;;
40244;SDS011;25963;42.694;23.600;2022-09-19T15:34:56;3.25;;;0.70;;
40244;SDS011;25963;42.694;23.600;2022-09-19T15:37:23;1.23;;;0.63;;
40244;SDS011;25963;42.694;23.600;2022-09-19T15:39:50;4.95;;;0.73;;
40244;SDS011;25963;42.694;23.600;2022-09-19T15:42:17;3.33;;;0.85;;
40244;SDS011;25963;42.694;23.600;2022-09-19T15:44:44;4.57;;;1.30;;
40244;SDS011;25963;42.694;23.600;2022-09-19T15:47:14;3.63;;;1.60;;
40244;SDS011;25963;42.694;23.600;2022-09-19T15:49:43;2.83;;;1.10;;
40244;SDS011;25963;42.694;23.600;2022-09-19T15:52:16;3.42;;;1.50;;
40244;SDS011;25963;42.694;23.600;2022-09-19T15:54:46;2.95;;;0.88;;
40244;SDS011;25963;42.694;23.600;2022-09-19T15:57:18;7.75;;;1.25;;
40244;SDS011;25963;42.694;23.600;2022-09-19T16:00:21;10.07;;;1.90;;
40244;SDS011;25963;42.694;23.600;2022-09-19T16:02:52;11.65;;;2.60;;
40244;SDS011;25963;42.694;23.600;2022-09-19T16:05:27;9.65;;;1.48;;
40244;SDS011;25963;42.694;23.600;2022-09-19T16:07:56;2.90;;;1.20;;
40244;SDS011;25963;42.694;23.600;2022-09-19T16:10:42;6.15;;;1.25;;
40244;SDS011;25963;42.694;23.600;2022-09-19T16:18:28;2.22;;;1.08;;
40244;SDS011;25963;42.694;23.600;2022-09-19T16:21:09;5.50;;;1.63;;
40244;SDS011;25963;42.694;23.600;2022-09-19T16:23:42;7.90;;;1.98;;
40244;SDS011;25963;42.694;23.600;2022-09-19T16:26:10;7.88;;;2.00;;
40244;SDS011;25963;42.694;23.600;2022-09-19T16:28:40;5.82;;;1.70;;
40244;SDS011;25963;42.694;23.600;2022-09-19T16:33:49;8.13;;;1.58;;
40244;SDS011;25963;42.694;23.600;2022-09-19T16:36:15;7.03;;;2.55;;
40244;SDS011;25963;42.694;23.600;2022-09-19T16:41:23;6.67;;;2.03;;
40244;SDS011;25963;42.694;23.600;2022-09-19T16:46:46;5.90;;;1.38;;
40244;SDS011;25963;42.694;23.600;2022-09-19T16:49:14;5.32;;;1.35;;
40244;SDS011;25963;42.694;23.600;2022-09-19T16:51:39;7.45;;;1.30;;
40244;SDS011;25963;42.694;23.600;2022-09-19T16:54:05;2.92;;;1.83;;
40244;SDS011;25963;42.694;23.600;2022-09-19T16:56:37;3.60;;;0.95;;
40244;SDS011;25963;42.694;23.600;2022-09-19T16:59:12;1.52;;;0.88;;
40244;SDS011;25963;42.694;23.600;2022-09-19T17:01:39;2.55;;;0.85;;
40244;SDS011;25963;42.694;23.600;2022-09-19T17:04:07;6.55;;;0.82;;
40244;SDS011;25963;42.694;23.600;2022-09-19T17:06:36;2.45;;;0.70;;
40244;SDS011;25963;42.694;23.600;2022-09-19T17:09:02;5.18;;;0.90;;
40244;SDS011;25963;42.694;23.600;2022-09-19T17:11:27;3.85;;;0.85;;
40244;SDS011;25963;42.694;23.600;2022-09-19T17:13:52;2.63;;;1.17;;
40244;SDS011;25963;42.694;23.600;2022-09-19T17:16:18;1.10;;;0.82;;
40244;SDS011;25963;42.694;23.600;2022-09-19T17:18:44;1.90;;;0.90;;
40244;SDS011;25963;42.694;23.600;2022-09-19T17:21:12;3.08;;;1.60;;
40244;SDS011;25963;42.694;23.600;2022-09-19T17:23:38;4.97;;;1.60;;
40244;SDS011;25963;42.694;23.600;2022-09-19T17:26:04;6.65;;;2.63;;
40244;SDS011;25963;42.694;23.600;2022-09-19T17:28:30;8.35;;;3.83;;
40244;SDS011;25963;42.694;23.600;2022-09-19T17:30:57;5.80;;;3.30;;
40244;SDS011;25963;42.694;23.600;2022-09-19T17:33:25;5.07;;;3.25;;
40244;SDS011;25963;42.694;23.600;2022-09-19T17:35:52;7.88;;;3.30;;
40244;SDS011;25963;42.694;23.600;2022-09-19T17:38:22;5.83;;;3.63;;
40244;SDS011;25963;42.694;23.600;2022-09-19T17:40:49;4.00;;;2.67;;
40244;SDS011;25963;42.694;23.600;2022-09-19T17:43:15;11.65;;;2.83;;
40244;SDS011;25963;42.694;23.600;2022-09-19T17:45:42;5.10;;;2.30;;
40244;SDS011;25963;42.694;23.600;2022-09-19T17:48:10;6.40;;;2.50;;
40244;SDS011;25963;42.694;23.600;2022-09-19T17:50:40;5.65;;;2.85;;
40244;SDS011;25963;42.694;23.600;2022-09-19T17:53:06;5.10;;;2.35;;
40244;SDS011;25963;42.694;23.600;2022-09-19T17:55:32;5.40;;;1.77;;
40244;SDS011;25963;42.694;23.600;2022-09-19T17:57:58;4.35;;;1.70;;
40244;SDS011;25963;42.694;23.600;2022-09-19T18:00:24;3.33;;;1.42;;
40244;SDS011;25963;42.694;23.600;2022-09-19T18:02:49;3.53;;;2.20;;
40244;SDS011;25963;42.694;23.600;2022-09-19T18:05:34;6.30;;;2.90;;
40244;SDS011;25963;42.694;23.600;2022-09-19T18:08:00;5.07;;;2.47;;
40244;SDS011;25963;42.694;23.600;2022-09-19T18:10:27;3.88;;;2.28;;
40244;SDS011;25963;42.694;23.600;2022-09-19T18:12:54;3.15;;;1.65;;
40244;SDS011;25963;42.694;23.600;2022-09-19T18:15:21;5.72;;;1.98;;
40244;SDS011;25963;42.694;23.600;2022-09-19T18:17:56;3.67;;;1.58;;
40244;SDS011;25963;42.694;23.600;2022-09-19T18:20:22;4.53;;;1.52;;
40244;SDS011;25963;42.694;23.600;2022-09-19T18:22:53;3.83;;;1.48;;
40244;SDS011;25963;42.694;23.600;2022-09-19T18:25:18;5.88;;;1.40;;
40244;SDS011;25963;42.694;23.600;2022-09-19T18:27:45;4.00;;;1.33;;
40244;SDS011;25963;42.694;23.600;2022-09-19T18:30:15;4.05;;;1.90;;
40244;SDS011;25963;42.694;23.600;2022-09-19T18:32:45;4.95;;;1.58;;